KISW

Alexander Field South Wood County Airport

Wisconsin Rapids, Wisconsin, USA
METAR KISW 172102Z AUTO 10003KT 2SM -SN BR OVC004 M02/M03 A3001 RMK AO2 P0000 T10171033
Observed Flight Rules
Dec-17 @ 21:02 UTC (30 minutes ago) Instrument Flight Rules
Wind Visibility Clouds Conditions
100° at 3 knots 2 miles
  • Overcast at 400' AGL
  • Light Snow
  • Mist
Temperatures Readings Precipitation
Current -2°C / 28°F
Dewpoint -3°C / 27°F
Humidity 93%
Altimeter 30.01" Hg
Pressure 1016 hPa
Elevation 307
Current Rain 0.005
METAR KISW 172102Z AUTO 10003KT 2SM -SN BR OVC004 M02/M03 A3001 RMK AO2 P0000 T10171033
Observed Flight Rules
Dec-17 @ 21:02 UTC
(30 minutes ago)
LIFR
Wind Visibility
100° at 3 knots 2 miles
Clouds
  • Overcast at 400' AGL
Conditions
  • Light Snow
  • Mist
Temperature Dewpoint
-2°C / 28°F -3°C / 27°F
Humidity Altimeter Pressure
93% 30.01" Hg 1016 hPa
Current Rain
0.005